Inis Mor — V7AQ9 — position and weather

sailwx.info

Track history (hours):
 
Tides and Currents Weather Stations Pressure Air Temp Water Temp Dewpoint Dewpoint Depression Visibility Wind Speed Wind Dir Waves Ship Positions

Inis Mor

Last reported at 2018-May-29 17:17 UTC. Time now 2018-Jun-24 03:40 UTC.
Position S 34°19' E 017°32'.
Warning: this ship's position is 25 days out of date.

Length 149 m; draft 6.2 m.

Type: Cargo ship. MMSI: 538005052.

Date/timePositionNaut miles runAvg speedWind from/ knotsBaromVisibWave heightAir tempDewpointWater temp
2018-May-29 17:17S 34°19' E 017°32'2 8.4
2018-May-29 17:00S 34°20' E 017°34'4 8.4
2018-May-29 16:30S 34°21' E 017°39'4 8.2
2018-May-29 16:00S 34°23' E 017°44'4 8.4
2018-May-29 15:30S 34°24' E 017°48'4 8.4
2018-May-29 14:59S 34°26' E 017°53'4 8.1
2018-May-29 14:30S 34°28' E 017°58'4 8.0
2018-May-29 14:00S 34°29' E 018°02'4 8.2
2018-May-29 13:29S 34°31' E 018°07'4 8.1
2018-May-29 12:57S 34°33' E 018°11'4 8.6
2018-May-29 12:27S 34°36' E 018°15'4 8.3
2018-May-29 11:58S 34°37' E 018°20'4 8.2
2018-May-29 11:30S 34°38' E 018°24'4 8.0
2018-May-29 10:59S 34°39' E 018°29'4 8.2
2018-May-29 10:30S 34°40' E 018°34'4 8.0
2018-May-29 10:00S 34°41' E 018°39'4 7.9
2018-May-29 09:30S 34°43' E 018°43'4 7.9
2018-May-29 08:59S 34°44' E 018°48'4 8.0
2018-May-29 08:29S 34°46' E 018°52'  
2018-May-26 09:33S 30°36' E 031°02'0 8.1
2018-May-26 09:30S 30°36' E 031°02'4 8.4
2018-May-26 09:00S 30°32' E 031°05'4 8.1
2018-May-26 08:30S 30°30' E 031°09'4 8.9
2018-May-26 08:00S 30°26' E 031°12'5 9.3
2018-May-26 07:30S 30°23' E 031°16'510.6
2018-May-26 07:00S 30°19' E 031°19'510.5
2018-May-26 06:30S 30°15' E 031°23'1111.3
2018-May-26 05:30S 30°06' E 031°32'611.2
2018-May-26 05:00S 30°02' E 031°37'611.4
2018-May-26 04:30S 29°58' E 031°41'611.3
2018-May-26 04:00S 29°54' E 031°46'611.1
2018-May-26 03:30S 29°50' E 031°50'611.0
2018-May-26 03:00S 29°46' E 031°54'611.2
2018-May-26 02:30S 29°41' E 031°58'611.0
2018-May-26 01:59S 29°37' E 032°02'510.9
2018-May-26 01:29S 29°33' E 032°06'510.8
2018-May-26 01:00S 29°29' E 032°10'710.8
2018-May-26 00:21S 29°24' E 032°16'  
Track history (hours):
 
Tides and Currents Weather Stations Pressure Air Temp Water Temp Dewpoint Dewpoint Depression Visibility Wind Speed Wind Dir Waves Ship Positions

Inis Mor

Last reported at 2018-May-29 17:17 UTC. Time now 2018-Jun-24 03:40 UTC.
Position S 34°19' E 017°32'.
Warning: this ship's position is 25 days out of date.

Length 149 m; draft 6.2 m.

Type: Cargo ship. MMSI: 538005052.

Date/timePositionNaut miles runAvg speedWind from/ knotsBaromVisibWave heightAir tempDewpointWater temp
2018-May-29 17:17S 34°19' E 017°32'2 8.4
2018-May-29 17:00S 34°20' E 017°34'4 8.4
2018-May-29 16:30S 34°21' E 017°39'4 8.2
2018-May-29 16:00S 34°23' E 017°44'4 8.4
2018-May-29 15:30S 34°24' E 017°48'4 8.4
2018-May-29 14:59S 34°26' E 017°53'4 8.1
2018-May-29 14:30S 34°28' E 017°58'4 8.0
2018-May-29 14:00S 34°29' E 018°02'4 8.2
2018-May-29 13:29S 34°31' E 018°07'4 8.1
2018-May-29 12:57S 34°33' E 018°11'4 8.6
2018-May-29 12:27S 34°36' E 018°15'4 8.3
2018-May-29 11:58S 34°37' E 018°20'4 8.2
2018-May-29 11:30S 34°38' E 018°24'4 8.0
2018-May-29 10:59S 34°39' E 018°29'4 8.2
2018-May-29 10:30S 34°40' E 018°34'4 8.0
2018-May-29 10:00S 34°41' E 018°39'4 7.9
2018-May-29 09:30S 34°43' E 018°43'4 7.9
2018-May-29 08:59S 34°44' E 018°48'4 8.0
2018-May-29 08:29S 34°46' E 018°52'  
2018-May-26 09:33S 30°36' E 031°02'0 8.1
2018-May-26 09:30S 30°36' E 031°02'4 8.4
2018-May-26 09:00S 30°32' E 031°05'4 8.1
2018-May-26 08:30S 30°30' E 031°09'4 8.9
2018-May-26 08:00S 30°26' E 031°12'5 9.3
2018-May-26 07:30S 30°23' E 031°16'510.6
2018-May-26 07:00S 30°19' E 031°19'510.5
2018-May-26 06:30S 30°15' E 031°23'1111.3
2018-May-26 05:30S 30°06' E 031°32'611.2
2018-May-26 05:00S 30°02' E 031°37'611.4
2018-May-26 04:30S 29°58' E 031°41'611.3
2018-May-26 04:00S 29°54' E 031°46'611.1
2018-May-26 03:30S 29°50' E 031°50'611.0
2018-May-26 03:00S 29°46' E 031°54'611.2
2018-May-26 02:30S 29°41' E 031°58'611.0
2018-May-26 01:59S 29°37' E 032°02'510.9
2018-May-26 01:29S 29°33' E 032°06'510.8
2018-May-26 01:00S 29°29' E 032°10'710.8
2018-May-26 00:21S 29°24' E 032°16'  

Dump ship's entire track history